createdAt,value
2018-04-16T00:00:01.315Z,127.27
2018-04-16T00:02:29.508Z,144.00
2018-04-16T00:04:57.741Z,145.57
2018-04-16T00:07:26.725Z,157.77
2018-04-16T00:09:54.951Z,150.67
2018-04-16T00:12:26.059Z,143.60
2018-04-16T00:14:54.233Z,150.33
2018-04-16T00:17:22.426Z,130.67
2018-04-16T00:19:50.634Z,137.10
2018-04-16T00:22:19.560Z,139.73
2018-04-16T00:24:48.518Z,127.43
2018-04-16T00:27:16.692Z,132.17
2018-04-16T00:29:45.273Z,140.60
2018-04-16T00:32:18.967Z,144.57
2018-04-16T00:35:11.656Z,131.70
2018-04-16T00:37:45.288Z,135.20
2018-04-16T00:40:19.140Z,133.67
2018-04-16T00:42:53.526Z,145.40
2018-04-16T00:45:27.092Z,170.73
2018-04-16T00:48:00.870Z,175.03
2018-04-16T00:50:34.539Z,153.10
2018-04-16T00:55:47.463Z,354.93
2018-04-16T00:58:21.251Z,457.97
2018-04-16T01:06:12.394Z,308.73
2018-04-16T01:08:46.835Z,287.03
2018-04-16T01:11:20.482Z,218.23
2018-04-16T01:13:54.948Z,255.23
2018-04-16T01:22:52.928Z,97.97
2018-04-16T01:25:29.945Z,114.60
2018-04-16T01:52:14.897Z,113.23
2018-04-16T01:54:49.339Z,113.03
2018-04-16T02:02:45.051Z,108.57
2018-04-16T02:05:18.755Z,92.90
2018-04-16T02:07:56.230Z,106.37
2018-04-16T02:10:41.592Z,90.73
2018-04-16T02:13:15.928Z,90.40
2018-04-16T02:16:01.625Z,98.00
2018-04-16T02:35:34.078Z,113.07
2018-04-16T02:38:10.767Z,94.87
2018-04-16T02:40:44.578Z,114.07
2018-04-16T02:43:18.310Z,103.37
2018-04-16T02:45:52.085Z,114.87
2018-04-16T02:48:26.939Z,105.53
2018-04-16T02:51:04.979Z,112.67
2018-04-16T02:53:38.902Z,110.03
2018-04-16T02:56:13.904Z,107.43
2018-04-16T03:01:41.844Z,109.17
2018-04-16T03:04:15.663Z,106.27
2018-04-16T03:06:49.374Z,103.13
2018-04-16T03:12:03.513Z,119.57
2018-04-16T03:47:31.122Z,110.47
2018-04-16T03:50:04.853Z,96.83
2018-04-16T03:52:38.717Z,108.83
2018-04-16T04:04:16.416Z,110.87
2018-04-16T04:07:10.135Z,107.67
2018-04-16T04:12:38.553Z,121.93
2018-04-16T04:18:21.225Z,111.63
2018-04-16T04:20:49.471Z,115.37
2018-04-16T04:32:18.652Z,109.43
2018-04-16T04:34:46.831Z,101.23
2018-04-16T04:37:15.051Z,106.13
2018-04-16T04:39:47.540Z,112.17
2018-04-16T04:42:15.855Z,101.40
2018-04-16T04:44:44.140Z,110.37
2018-04-16T04:47:12.374Z,106.00
2018-04-16T04:52:39.846Z,107.83
2018-04-16T04:55:50.166Z,99.40
2018-04-16T05:01:52.325Z,114.73
2018-04-16T05:04:20.500Z,110.73
2018-04-16T05:10:04.548Z,98.90
2018-04-16T05:12:32.846Z,105.43
2018-04-16T05:18:33.394Z,106.33
2018-04-16T05:21:01.731Z,109.37
2018-04-16T05:23:30.025Z,110.27
2018-04-16T05:28:59.678Z,102.17
2018-04-16T05:31:27.932Z,102.30
2018-04-16T05:33:56.166Z,96.73
2018-04-16T05:36:24.380Z,98.07
2018-04-16T05:38:52.569Z,103.70
2018-04-16T05:41:20.747Z,102.30
2018-04-16T05:43:48.960Z,109.87
2018-04-16T05:46:17.125Z,102.20
2018-04-16T05:48:45.277Z,96.03
2018-04-16T05:51:13.489Z,93.97
2018-04-16T05:53:41.686Z,92.43
2018-04-16T05:56:19.499Z,88.90
2018-04-16T05:58:47.695Z,89.00
2018-04-16T06:01:15.949Z,97.40
2018-04-16T06:06:34.671Z,87.43
2018-04-16T06:12:03.837Z,81.70
2018-04-16T06:14:32.102Z,99.53
2018-04-16T06:17:00.386Z,92.57
2018-04-16T06:19:28.572Z,81.57
2018-04-16T06:21:56.796Z,72.03
2018-04-16T06:27:24.663Z,81.27
2018-04-16T06:29:52.786Z,79.37
2018-04-16T06:32:20.951Z,71.20
2018-04-16T06:34:49.103Z,82.90
2018-04-16T06:37:17.303Z,72.47
2018-04-16T06:39:45.474Z,67.93
2018-04-16T06:42:13.673Z,74.20
2018-04-16T06:44:41.895Z,81.57
2018-04-16T06:47:10.099Z,65.20
2018-04-16T06:49:39.956Z,65.83
2018-04-16T06:55:12.571Z,65.80
2018-04-16T06:57:41.550Z,65.83
2018-04-16T07:00:09.760Z,74.43
2018-04-16T07:02:38.007Z,70.20
2018-04-16T07:05:06.982Z,77.10
2018-04-16T07:07:35.163Z,65.50
2018-04-16T07:10:03.316Z,72.97
2018-04-16T07:12:31.500Z,70.20
2018-04-16T07:15:00.468Z,61.57
2018-04-16T07:17:48.567Z,70.10
2018-04-16T07:20:16.727Z,64.33
2018-04-16T07:22:45.718Z,72.07
2018-04-16T07:26:02.463Z,64.47
2018-04-16T07:28:30.638Z,72.33
2018-04-16T07:30:58.808Z,66.40
2018-04-16T07:33:26.955Z,66.40
2018-04-16T07:36:11.995Z,68.97
2018-04-16T07:38:40.165Z,71.87
2018-04-16T07:41:08.333Z,71.73
2018-04-16T07:43:36.595Z,66.73
2018-04-16T07:46:04.760Z,64.50
2018-04-16T07:48:33.068Z,75.40
2018-04-16T07:51:09.359Z,66.33
2018-04-16T07:53:37.825Z,83.17
2018-04-16T07:56:06.060Z,62.67
2018-04-16T07:58:34.313Z,62.13
2018-04-16T08:01:02.452Z,61.20
2018-04-16T08:03:30.636Z,55.33
2018-04-16T08:05:58.772Z,50.47
2018-04-16T08:08:26.918Z,59.33
2018-04-16T08:10:55.114Z,58.53
2018-04-16T08:13:23.450Z,50.17
2018-04-16T08:15:51.639Z,48.30
2018-04-16T08:18:19.882Z,53.57
2018-04-16T08:20:48.022Z,53.70
2018-04-16T08:23:16.950Z,53.83
2018-04-16T08:25:45.140Z,50.70
2018-04-16T08:28:13.361Z,48.53
2018-04-16T08:30:41.538Z,64.03
2018-04-16T08:33:09.781Z,56.67
2018-04-16T08:35:37.934Z,51.30
2018-04-16T08:38:06.105Z,50.87
2018-04-16T08:40:34.244Z,49.77
2018-04-16T08:43:02.623Z,52.60
2018-04-16T08:45:30.871Z,50.03
2018-04-16T08:47:59.112Z,50.13
2018-04-16T08:50:27.344Z,48.70
2018-04-16T08:52:55.522Z,50.43
2018-04-16T08:55:23.866Z,48.93
2018-04-16T08:57:52.024Z,46.47
2018-04-16T09:00:20.159Z,42.97
2018-04-16T09:02:48.307Z,48.10
2018-04-16T09:05:17.237Z,49.83
2018-04-16T09:07:45.394Z,48.03
2018-04-16T09:10:13.584Z,48.30
2018-04-16T09:12:41.797Z,43.83
2018-04-16T09:15:09.954Z,45.93
2018-04-16T09:17:38.139Z,42.37
2018-04-16T09:20:06.310Z,44.90
2018-04-16T09:22:34.601Z,51.67
2018-04-16T09:25:03.608Z,50.43
2018-04-16T09:27:31.835Z,52.60
2018-04-16T09:30:00.082Z,40.60
2018-04-16T09:32:31.295Z,51.23
2018-04-16T09:34:59.537Z,49.50
2018-04-16T09:37:27.742Z,48.23
2018-04-16T09:39:55.911Z,41.63
2018-04-16T09:42:24.810Z,41.50
2018-04-16T09:44:52.981Z,47.97
2018-04-16T09:47:21.173Z,41.43
2018-04-16T09:49:49.333Z,45.97
2018-04-16T09:52:17.613Z,44.77
2018-04-16T09:54:45.799Z,44.07
2018-04-16T09:57:13.947Z,48.67
2018-04-16T09:59:42.878Z,42.70
2018-04-16T10:02:17.333Z,47.33
2018-04-16T10:04:45.514Z,51.60
2018-04-16T10:07:15.062Z,52.70
2018-04-16T10:09:43.231Z,49.07
2018-04-16T10:12:11.424Z,47.70
2018-04-16T10:14:39.573Z,49.40
2018-04-16T10:17:08.383Z,42.13
2018-04-16T10:19:36.542Z,46.30
2018-04-16T10:22:04.708Z,42.50
2018-04-16T10:24:32.872Z,43.50
2018-04-16T10:27:01.073Z,44.97
2018-04-16T10:29:29.222Z,44.10
2018-04-16T10:31:57.376Z,41.20
2018-04-16T10:34:25.570Z,37.20
2018-04-16T10:36:53.740Z,41.13
2018-04-16T10:39:21.914Z,39.10
2018-04-16T10:41:50.155Z,37.20
2018-04-16T10:44:18.317Z,35.17
2018-04-16T10:46:46.505Z,38.03
2018-04-16T10:49:14.669Z,39.53
2018-04-16T10:51:42.816Z,42.93
2018-04-16T10:54:11.036Z,34.80
2018-04-16T10:56:40.539Z,33.33
2018-04-16T10:59:08.700Z,33.87
2018-04-16T11:01:37.644Z,35.60
2018-04-16T11:04:05.813Z,34.63
2018-04-16T11:06:33.948Z,37.80
2018-04-16T11:09:02.866Z,28.90
2018-04-16T11:11:31.044Z,28.80
2018-04-16T11:13:59.205Z,31.43
2018-04-16T11:16:27.368Z,24.40
2018-04-16T11:18:56.289Z,23.53
2018-04-16T11:21:24.476Z,23.20
2018-04-16T11:23:52.815Z,26.13
2018-04-16T11:26:20.972Z,25.10
2018-04-16T11:28:49.942Z,23.77
2018-04-16T11:31:18.100Z,22.20
2018-04-16T11:33:46.267Z,19.93
2018-04-16T11:36:14.408Z,21.93
2018-04-16T11:38:42.583Z,21.43
2018-04-16T11:41:10.815Z,18.07
2018-04-16T11:43:38.968Z,21.30
2018-04-16T11:46:07.113Z,21.70
2018-04-16T11:48:35.307Z,24.27
2018-04-16T11:51:03.465Z,29.23
2018-04-16T11:53:31.665Z,27.17
2018-04-16T11:55:59.880Z,29.10
2018-04-16T11:58:28.856Z,26.97
2018-04-16T12:00:57.044Z,21.30
2018-04-16T12:03:25.653Z,23.93
2018-04-16T12:05:53.895Z,22.37
2018-04-16T12:08:21.996Z,22.50
2018-04-16T12:10:50.152Z,23.80
2018-04-16T12:13:18.386Z,22.10
2018-04-16T12:15:46.651Z,24.03
2018-04-16T12:18:14.826Z,22.77
2018-04-16T12:20:43.829Z,20.70
2018-04-16T12:23:11.983Z,23.93
2018-04-16T12:25:40.122Z,21.67
2018-04-16T12:28:08.316Z,24.80
2018-04-16T12:30:42.076Z,24.90
2018-04-16T12:33:16.495Z,25.10
2018-04-16T12:35:50.529Z,23.53
2018-04-16T12:38:18.696Z,20.77
2018-04-16T12:40:46.843Z,24.67
2018-04-16T12:43:21.716Z,25.20
2018-04-16T12:45:49.904Z,23.47
2018-04-16T12:48:23.889Z,29.63
2018-04-16T12:50:52.069Z,25.80
2018-04-16T12:53:26.092Z,22.80
2018-04-16T12:56:00.134Z,21.70
2018-04-16T12:58:28.332Z,23.93
2018-04-16T13:01:08.020Z,21.00
2018-04-16T13:03:36.247Z,17.40
2018-04-16T13:06:04.414Z,19.17
2018-04-16T13:08:39.255Z,20.50
2018-04-16T13:11:07.563Z,18.30
2018-04-16T13:13:35.725Z,21.83
2018-04-16T13:16:03.865Z,19.73
2018-04-16T13:18:38.403Z,24.80
2018-04-16T13:21:12.746Z,22.93
2018-04-16T13:23:41.280Z,25.80
2018-04-16T13:26:16.135Z,23.30
2018-04-16T13:28:44.287Z,21.53
2018-04-16T13:31:18.983Z,19.27
2018-04-16T13:33:48.031Z,30.13
2018-04-16T13:36:16.243Z,21.40
2018-04-16T13:38:45.140Z,21.50
2018-04-16T13:41:19.224Z,19.60
2018-04-16T13:43:47.361Z,23.80
2018-04-16T13:46:21.400Z,19.00
2018-04-16T13:48:55.242Z,15.20
2018-04-16T13:51:23.545Z,17.73
2018-04-16T13:53:57.684Z,17.47
2018-04-16T13:56:25.836Z,17.73
2018-04-16T13:59:05.621Z,20.77
2018-04-16T14:01:33.769Z,19.20
2018-04-16T14:04:07.713Z,20.90
2018-04-16T14:06:35.873Z,16.73
2018-04-16T14:09:04.088Z,21.27
2018-04-16T14:11:32.282Z,16.07
2018-04-16T14:14:05.823Z,16.50
2018-04-16T14:16:34.013Z,13.40
2018-04-16T14:19:02.159Z,13.63
2018-04-16T14:21:30.316Z,13.10
2018-04-16T14:24:04.227Z,13.73
2018-04-16T14:26:38.311Z,14.43
2018-04-16T14:29:13.182Z,13.53
2018-04-16T14:31:41.422Z,15.23
2018-04-16T14:34:21.532Z,21.63
2018-04-16T14:36:49.701Z,17.93
2018-04-16T14:39:17.949Z,19.80
2018-04-16T14:41:46.359Z,18.93
2018-04-16T14:44:14.594Z,22.53
2018-04-16T14:46:42.790Z,18.60
2018-04-16T14:49:10.951Z,19.77
2018-04-16T14:51:44.516Z,18.80
2018-04-16T14:54:19.240Z,20.93
2018-04-16T14:56:48.189Z,20.73
2018-04-16T14:59:22.244Z,20.30
2018-04-16T15:01:56.300Z,20.53
2018-04-16T15:04:24.789Z,20.60
2018-04-16T15:06:58.823Z,22.40
2018-04-16T15:09:27.014Z,22.50
2018-04-16T15:12:01.011Z,25.37
2018-04-16T15:14:29.195Z,24.87
2018-04-16T15:17:04.001Z,27.60
2018-04-16T15:19:32.171Z,28.83
2018-04-16T15:22:00.387Z,27.90
2018-04-16T15:24:29.486Z,31.57
2018-04-16T15:26:57.766Z,32.73
2018-04-16T15:29:26.036Z,34.60
2018-04-16T15:31:54.246Z,33.33
2018-04-16T15:34:22.431Z,33.13
2018-04-16T15:36:50.931Z,35.60
2018-04-16T15:39:19.060Z,36.83
2018-04-16T15:41:47.229Z,37.27
2018-04-16T15:44:15.493Z,40.57
2018-04-16T15:46:44.435Z,37.00
2018-04-16T15:49:12.586Z,39.00
2018-04-16T15:51:40.749Z,38.27
2018-04-16T15:54:08.915Z,42.93
2018-04-16T15:56:37.118Z,43.63
2018-04-16T15:59:05.645Z,40.47
2018-04-16T16:01:33.897Z,43.17
2018-04-16T16:04:02.924Z,46.73
2018-04-16T16:06:31.118Z,47.63
2018-04-16T16:08:59.271Z,42.93
2018-04-16T16:11:27.426Z,43.07
2018-04-16T16:13:56.327Z,46.80
2018-04-16T16:16:24.592Z,44.33
2018-04-16T16:18:53.909Z,50.70
2018-04-16T16:21:22.977Z,49.07
2018-04-16T16:23:52.086Z,47.13
2018-04-16T16:26:20.260Z,48.87
2018-04-16T16:28:48.469Z,47.93
2018-04-16T16:31:16.669Z,49.70
2018-04-16T16:33:44.879Z,45.77
2018-04-16T16:36:13.159Z,55.20
2018-04-16T16:38:41.558Z,50.57
2018-04-16T16:41:10.107Z,52.37
2018-04-16T16:43:38.314Z,56.50
2018-04-16T16:46:06.506Z,52.63
2018-04-16T16:48:34.658Z,50.47
2018-04-16T16:51:02.943Z,51.50
2018-04-16T16:53:31.091Z,53.70
2018-04-16T16:55:59.291Z,54.87
2018-04-16T16:58:27.445Z,59.27
2018-04-16T17:00:55.624Z,54.53
2018-04-16T17:03:23.945Z,55.40
2018-04-16T17:05:52.108Z,50.73
2018-04-16T17:08:20.370Z,49.20
2018-04-16T17:10:48.533Z,48.87
2018-04-16T17:13:16.809Z,50.23
2018-04-16T17:15:46.214Z,44.03
2018-04-16T17:18:14.378Z,36.40
2018-04-16T17:20:42.540Z,31.40
2018-04-16T17:23:10.734Z,36.00
2018-04-16T17:25:38.897Z,27.57
2018-04-16T17:28:07.086Z,27.70
2018-04-16T17:30:35.267Z,30.27
2018-04-16T17:33:03.418Z,25.17
2018-04-16T17:35:31.623Z,24.43
2018-04-16T17:37:59.984Z,23.50
2018-04-16T17:40:28.215Z,23.00
2018-04-16T17:42:56.547Z,24.40
2018-04-16T17:45:24.779Z,23.60
2018-04-16T17:47:53.004Z,22.40
2018-04-16T17:50:22.347Z,19.23
2018-04-16T17:52:50.484Z,21.43
2018-04-16T17:55:19.425Z,20.67
2018-04-16T17:57:47.588Z,20.80
2018-04-16T18:00:15.871Z,24.10
2018-04-16T18:02:44.257Z,22.60
2018-04-16T18:05:12.684Z,25.27
2018-04-16T18:07:41.030Z,20.80
2018-04-16T18:10:14.254Z,22.20
2018-04-16T18:12:44.904Z,19.57
2018-04-16T18:15:13.372Z,22.00
2018-04-16T18:17:41.740Z,18.10
2018-04-16T18:20:10.072Z,19.90
2018-04-16T18:22:38.544Z,20.67
2018-04-16T18:25:11.509Z,20.10
2018-04-16T18:27:39.959Z,19.10
2018-04-16T18:30:32.099Z,23.00
2018-04-16T18:35:51.967Z,13.90
2018-04-16T18:38:20.655Z,17.50
2018-04-16T18:40:52.178Z,14.60
2018-04-16T18:43:31.242Z,25.43
2018-04-16T18:45:59.598Z,14.40
2018-04-16T18:48:28.037Z,13.80
2018-04-16T18:50:56.431Z,13.73
2018-04-16T18:53:25.031Z,17.07
2018-04-16T18:55:53.590Z,14.37
2018-04-16T18:58:22.226Z,13.33
2018-04-16T19:00:52.940Z,15.87
2018-04-16T19:03:21.345Z,12.67
2018-04-16T19:05:49.816Z,18.50
2018-04-16T19:08:18.232Z,12.70
2018-04-16T19:10:46.548Z,18.20
2018-04-16T19:13:14.863Z,17.50
2018-04-16T19:15:43.186Z,14.63
2018-04-16T19:18:11.399Z,16.30
2018-04-16T19:20:45.286Z,18.27
2018-04-16T19:23:13.479Z,16.43
2018-04-16T19:25:41.739Z,20.90
2018-04-16T19:28:15.276Z,21.60
2018-04-16T19:30:43.588Z,14.50
2018-04-16T19:33:17.389Z,18.27
2018-04-16T19:35:45.843Z,21.40
2018-04-16T19:38:14.712Z,19.63
2018-04-16T19:40:43.805Z,21.00
2018-04-16T19:43:12.039Z,20.57
2018-04-16T19:45:40.286Z,23.07
2018-04-16T19:48:08.542Z,21.63
2018-04-16T19:50:37.574Z,17.23
2018-04-16T19:53:05.874Z,20.40
2018-04-16T19:55:39.649Z,17.80
2018-04-16T19:58:13.504Z,17.73
2018-04-16T20:00:41.795Z,18.97
2018-04-16T20:03:16.420Z,17.90
2018-04-16T20:05:44.724Z,21.67
2018-04-16T20:08:13.294Z,16.03
2018-04-16T20:10:41.533Z,19.20
2018-04-16T20:13:09.730Z,12.33
2018-04-16T20:15:37.908Z,18.83
2018-04-16T20:18:07.010Z,16.27
2018-04-16T20:20:35.318Z,12.60
2018-04-16T20:23:03.647Z,16.20
2018-04-16T20:25:32.590Z,13.70
2018-04-16T20:28:00.784Z,11.40
2018-04-16T20:30:28.955Z,14.00
2018-04-16T20:32:57.154Z,13.17
2018-04-16T20:35:27.235Z,15.13
2018-04-16T20:37:55.440Z,14.57
2018-04-16T20:40:23.665Z,13.27
2018-04-16T20:42:51.958Z,15.13
2018-04-16T20:45:20.264Z,13.43
2018-04-16T20:47:48.522Z,12.03
2018-04-16T20:50:16.780Z,14.20
2018-04-16T20:52:44.986Z,11.30
2018-04-16T20:55:13.178Z,15.83
2018-04-16T20:57:42.109Z,13.93
2018-04-16T21:00:10.294Z,16.30
2018-04-16T21:02:38.492Z,12.87
2018-04-16T21:05:06.678Z,12.10
2018-04-16T21:07:35.615Z,14.93
2018-04-16T21:10:03.799Z,15.07
2018-04-16T21:12:32.106Z,13.23
2018-04-16T21:15:00.251Z,16.73
2018-04-16T21:17:28.410Z,13.73
2018-04-16T21:19:56.612Z,13.83
2018-04-16T21:22:24.822Z,16.07
2018-04-16T21:24:54.570Z,27.53
2018-04-16T21:27:22.733Z,18.83
2018-04-16T21:29:50.881Z,9.97
2018-04-16T21:32:19.748Z,18.20
2018-04-16T21:34:47.923Z,15.60
2018-04-16T21:37:16.862Z,16.33
2018-04-16T21:39:45.086Z,11.17
2018-04-16T21:42:13.271Z,10.87
2018-04-16T21:44:42.217Z,13.23
2018-04-16T21:47:10.949Z,13.90
2018-04-16T21:49:39.937Z,18.30
2018-04-16T21:52:08.871Z,19.80
2018-04-16T21:54:38.270Z,16.40
2018-04-16T21:57:06.451Z,14.07
2018-04-16T21:59:34.712Z,13.93
2018-04-16T22:02:02.982Z,13.53
2018-04-16T22:04:31.223Z,14.73
2018-04-16T22:07:00.927Z,18.97
2018-04-16T22:09:29.877Z,19.97
2018-04-16T22:11:58.084Z,16.73
2018-04-16T22:14:26.252Z,17.77
2018-04-16T22:16:54.419Z,18.70
2018-04-16T22:19:22.589Z,15.10
2018-04-16T22:21:50.766Z,15.60
2018-04-16T22:24:19.667Z,15.50
2018-04-16T22:26:47.831Z,18.77
2018-04-16T22:29:40.619Z,16.37
2018-04-16T22:32:08.845Z,14.17
2018-04-16T22:34:37.035Z,20.60
2018-04-16T22:40:07.280Z,23.97
2018-04-16T22:42:39.141Z,22.83
2018-04-16T22:45:13.715Z,19.63
2018-04-16T22:53:49.076Z,21.03
2018-04-16T23:11:47.570Z,27.83
2018-04-16T23:33:28.676Z,23.80
2018-04-16T23:46:08.485Z,18.30
2018-04-16T23:48:36.689Z,37.23
